Startpagina
METAR-TAF:

METAR-TAF

Vliegvelden :

Luchthaven Damascus

Damascus, Syrië

breedte: 33-25N, lengte: 036-31E, hoogte: 608 m

Actueel weer

Dit bericht is 33 minuten geleden gemaakt, om 18:00 UTC
Wind 14 kt uit het westzuidwesten
Temperatuur 30°C
Vochtigheid 24%
Druk 1006 hPa
Zicht 10 km of meer
geen wolken onder 1500 m en geen cumulonimbus

METAR: OSDI 181800Z 25014KT CAVOK 30/07 Q1006

Tijdstip: 21:33 (18:33 UTC)

Verwachting

Dit bericht is 2 uur en het 33 minuten geleden gemaakt, om 16:00 UTC
Verwachting geldig van 18 om 18 UTC tot 19 om 24 UTC
Wind 10 kt uit het zuidwesten
Zicht 10 km of meer
geen wolken onder 1500 m en geen cumulonimbus
Tijdelijke
van 19 om 12 UTC tot 19 om 18 UTC
Wind 15 kt uit het westen met uitschieters tot 25 kt
Zicht 10 km of meer
Weinig wolken op 3000 ft

TAF: OSDI 181600Z 1818/1924 22010KT CAVOK TEMPO 1912/1918 28015G25KT 9999 FEW030

Waarnemingen en weersverwachtingen van meer dan 4000 vliegvelden (METAR en TAF).

De beschikbare stations zijn de gele en rode punten op de kaart.

Ga met uw muis naar het station om de naam te zien.

Klik dan om waarnemingen en weersverwachtingen te zien.

kaart wijzigen: klik op de groene knoppen met een zwart kruis om in te zoomen, op de groene knop met een streepje om uit te zoomen of op de groene pijlen voor aangrenzende kaarten.


METAR-TAF: